Antonio Correia

Chief Scout - AVS
25 Dec 2027
Saturday
Process

Personality

Adaptability (15) Ambition (16) Controversy (15) Loyalty (3) Pressure (5) Professionalism (19) Sportsmanship (3) Temperament (16)

Profile

Coaching Style Democratic
License Continental Pro
Determination 6
Man Management 11
Motivating 12
Discipline 12
Job Satisfaction
33%
Fatigue
0%
Role Chief Scout
Wage 17.3K p/w
Contract 14.03.2030

Performance

Behaviour Good
Training Effectiveness
13%
Player Development
35%
Injury Prevention
55%
Tactical Implementation
35%

Recent Events

Attended a recruitment meeting now
Attended a recruitment meeting now
Recommended a transfer target now
Recommended a transfer target now
Recommended a transfer target now
Recommended a transfer target now
Recommended a transfer target now
Recommended a transfer target 7d ago

Currently Monitoring

117
Player Club Status Ability Confidence Watched Last Observed Latest Vote
Patrick Berg Borussia Mönchengladbach Negotiating 141 / 141 62% 1 01.06.2027 Approve
Mao Hosoya Manchester City Negotiating 134 / 135 67% 1 01.06.2027 Approve
Christos Mouzakitis Hull City Active 124 / 132 40% 2 31.05.2027 -
Toni Tamarit Alverca Active 119 / 119 40% 4 30.05.2027 -
Abraham Paintsil Hasaacas Active 86 / 104 40% 2 27.05.2027 -
Biel La Equidad Active 112 / 119 40% 2 26.05.2027 -
Jaydee Canvot Liverpool Active 133 / 142 40% 2 23.05.2027 -
Vasco Santos Oliveirense Active 97 / 93 40% 1 23.05.2027 -
Tiago Freitas Benfica Active 104 / 112 40% 2 22.05.2027 -
Joel McGregor Swindon Town Active 97 / 101 40% 1 22.05.2027 -
Jofre Torrents Ajax Active 126 / 128 40% 2 21.05.2027 -
Riquelme Thompson-Jones Shrewsbury Town Active 110 / 118 40% 2 20.05.2027 -
Kauã Moraes Cruzeiro Active 113 / 124 40% 2 19.05.2027 -
Leandro Martins Benfica Active 90 / 91 40% 1 17.05.2027 -
João Simões Sporting CP Active 130 / 142 40% 2 16.05.2027 -
Gladson Sulemana Liberty Professionals Active 85 / 101 40% 2 15.05.2027 -
Enzo Cardozo Virtus Entella Active 102 / 120 40% 1 10.05.2027 -
Gonçalo Oliveira Benfica Active 110 / 114 40% 2 04.05.2027 -
Moncef Zekri Sporting CP Active 94 / 107 40% 1 20.04.2027 -
João Teixeira Porto Active 112 / 118 40% 1 16.04.2027 -
Edmund Inusah WAFA Active 68 / 90 40% 1 11.04.2027 -
T-Jay Parfitt Cardiff City Active 92 / 96 40% 1 11.04.2027 -
Jacaré Corinthians Active 102 / 102 40% 1 08.04.2027 -
Riley Owen Wycombe Wanderers Active 93 / 106 40% 1 07.04.2027 -
Nicolas Sport Recife Active 106 / 101 40% 1 07.04.2027 -
Beni Mukendi Vitoria Guimaraes Active 120 / 118 40% 1 02.02.2027 -
Rubens Dinamo Moscow Active 140 / 130 40% 1 02.02.2027 -
Ramón Terrats Getafe Active 138 / 144 40% 1 26.01.2027 -
Milan van Ewijk Coventry City Active 127 / 137 40% 1 18.01.2027 -
Matheus Dias Nacional Active 127 / 131 40% 1 18.01.2027 -
Caio Vidal FC Copenhagen Negotiating 128 / 129 63% 1 11.01.2027 Approve
Kahiser Lenis Feirense Active 117 / 120 40% 3 01.01.2027 -
Figueiredo Alverca Active 122 / 134 40% 4 01.01.2027 -
Thulani Billiat Utrecht Negotiating 136 / 136 61% 1 01.01.2027 Approve
Adrian Dragusin CFR Cluj Negotiating 141 / 142 63% 1 01.01.2027 Approve
Amar Memić Juventude Negotiating 127 / 128 62% 1 01.01.2027 Approve
Víctor Gómez Braga Active 138 / 138 66% 1 01.01.2027 Approve
Dávid Strelec Middlesbrough Active 135 / 131 40% 1 31.12.2026 -
Makan Aïko Tondela Active 126 / 123 40% 2 30.12.2026 -
Relebohile Mofokeng Orlando Pirates Active 117 / 123 40% 4 30.12.2026 -
David Da Costa Portland Timbers Active 144 / 138 40% 3 27.12.2026 -
Savinho Tottenham Active 144 / 163 40% 1 24.12.2026 -
Dominik Steczyk Académico de Viseu Active 106 / 97 40% 1 24.12.2026 -
Carlos Vicente Udinese Active 137 / 138 40% 2 22.12.2026 -
Lucas Lima Ceará Active 113 / 111 40% 1 22.12.2026 -
Santi García Gil Vicente Active 125 / 136 40% 2 21.12.2026 -
Ronald Swansea City Active 123 / 127 40% 3 20.12.2026 -
Rodrigo Pinheiro Famalicao Active 128 / 128 40% 2 17.12.2026 -
Rafik Guitane Estoril Praia Active 125 / 125 40% 2 16.12.2026 -
Enzo Barrenechea Burnley Active 152 / 154 40% 3 08.12.2026 -
Welington Southampton Active 118 / 122 40% 2 07.12.2026 -
Amine Adli Bournemouth Active 141 / 148 40% 1 06.12.2026 -
Tommy Conway Middlesbrough Active 131 / 129 40% 2 05.12.2026 -
Luis Quintero Torreense Active 121 / 124 40% 1 05.12.2026 -
Enzo Loiodice KAA Gent Active 122 / 134 40% 1 03.12.2026 -
Miguel Baeza Nacional Active 120 / 117 40% 1 03.12.2026 -
Diogo Dalot Manchester United Active 144 / 146 40% 4 02.12.2026 -
Noni Madueke Arsenal Active 154 / 148 40% 1 02.12.2026 -
Yanis Begraoui Estoril Praia Active 127 / 128 40% 2 01.12.2026 -
Paulo Moreira Aston Villa Active 120 / 127 40% 2 30.11.2026 -
Christian Krasnodar Active 125 / 136 40% 2 29.11.2026 -
De Lucca Adana Demirspor Active 120 / 123 40% 1 29.11.2026 -
João Paulo Crawley Town Active 89 / 93 40% 1 29.11.2026 -
Kaique Kenji Cruzeiro Active 104 / 119 40% 4 28.11.2026 -
Rafael Navarro St. Louis CITY SC Active 115 / 122 40% 1 28.11.2026 -
Florentino Luís Ipswich Town Active 139 / 139 40% 3 26.11.2026 -
Tyler Adams Bournemouth Active 148 / 152 40% 1 26.11.2026 -
Julio Enciso Ipswich Town Active 147 / 152 40% 2 24.11.2026 -
Rodrigo Muniz Fulham Active 129 / 135 40% 2 20.11.2026 -
Mario Dorgeles Braga Active 123 / 130 40% 2 20.11.2026 -
Jonas Wind Braga Active 129 / 134 40% 1 20.11.2026 -
Lamine Cissé Peterborough United Active 111 / 118 40% 2 18.11.2026 -
André Luiz Sporting Kansas City Active 132 / 128 40% 1 18.11.2026 -
Daniel Júnior Nacional Active 116 / 118 40% 1 14.11.2026 -
Roberto Fernández Braga Active 145 / 138 40% 1 13.11.2026 Needs More Info
Helinho Toluca Active 121 / 123 40% 1 11.11.2026 -
Aidomo Emakhu Oxford United Active 113 / 115 40% 1 09.11.2026 -
Tamble Monteiro Rio Ave Active 130 / 121 40% 1 09.11.2026 -
Vinícius Lopes Santa Clara Active 115 / 114 40% 2 07.11.2026 -
Mateus Fernandes Tottenham Active 136 / 143 40% 1 07.11.2026 -
Pau Víctor Estrela da Amadora Active 128 / 139 40% 1 07.11.2026 -
Gonçalo Franco Swansea City Active 132 / 125 40% 2 03.11.2026 -
Thierry Rendall Correia Venezia Active 144 / 133 40% 1 03.11.2026 -
Tiago Ribeiro Millwall Active 106 / 110 40% 1 01.11.2026 -
Gedson Fernandes Spartak Moscow Active 143 / 134 40% 1 30.10.2026 -
Tomás Pereira Latina Active 76 / 75 40% 1 28.10.2026 -
Tiago Araújo KAA Gent Active 130 / 118 40% 1 28.10.2026 -
Xavier Biscayzacú Sporting CP Active 116 / 129 40% 2 24.10.2026 -
Carlos Álvarez Club America Active 149 / 131 40% 1 21.10.2026 -
Rodrigo Cezar Santos Active 97 / 102 40% 1 18.10.2026 -
Sindre Walle Egeli Nottingham Forest Active 133 / 133 40% 1 16.10.2026 -
Thierry Henry Sport Recife Active 73 / 85 40% 1 13.10.2026 -
Matías Contrera Northampton Town Active 100 / 101 40% 1 11.10.2026 -
Max Johnston Derby County Active 120 / 132 40% 1 08.10.2026 -
Xavi Sintes Estoril Praia Active 128 / 115 40% 1 07.10.2026 -
Bernardo Schappo Estrela da Amadora Active 128 / 124 40% 1 07.10.2026 -
Lukas Zuccarello Vasco da Gama Active 99 / 98 40% 1 06.10.2026 -
Yuri Alves Bragantino Active 102 / 104 40% 1 06.10.2026 -
Gustavo Miranda Sport Recife Active 78 / 83 40% 1 02.10.2026 -
João Scatolin Juventude Active 97 / 105 40% 1 28.09.2026 -
Tiziano Dornell Almagro Active 103 / 114 40% 1 25.09.2026 -
Heittor Palmeiras Active 76 / 84 40% 1 23.09.2026 -
Tiago Djaló Besiktas Active 123 / 126 40% 1 21.09.2026 -
Bernardo Vital Jagiellonia Active 124 / 131 40% 1 17.09.2026 -
Fábio Carvalho Brentford Active 143 / 131 40% 1 14.09.2026 -
Rúben Vinagre Legia Active 118 / 112 40% 1 14.09.2026 -
Toti Wolverhampton Active 128 / 124 40% 1 14.09.2026 -
Ryan Sessegnon Fulham Active 138 / 149 40% 1 13.09.2026 -
MT Santa Clara Active 119 / 111 40% 1 11.09.2026 -
Matheus Thuler Vissel Kobe Active 137 / 131 40% 1 10.09.2026 -
Tiago Dantas HNK Rijeka Active 113 / 121 40% 1 10.09.2026 -
Johan Martínez Deportivo Cali Active 110 / 125 40% 1 07.09.2026 -
Kaio Santos Sport Recife Active 70 / 89 40% 1 01.09.2026 -
Lucas Souza Atlético Mineiro Active 81 / 84 40% 1 01.09.2026 -
Luis Sabóia Palmeiras Active 74 / 86 40% 1 24.08.2026 -
Gonçalo Moreira Benfica Active 116 / 128 58% 1 03.08.2026 -
Pablo Campos Levante Active 113 / 127 40% 1 02.08.2026 -